Terminal Aerodrome Forecast
Issued by NWS

Home | Current Version | Previous Version | Text Only | Print | Product List | Glossary On
Versions: 1 2 3 4 5 6 7 8 9 10 11 12 13 14 15 16 17 18 19 20 21 22
000
FTUS45 KABQ 250527
TAFLVS
TAF
KLVS 250527Z 2506/2606 24009KT P6SM SCT090 BKN150
     FM251700 23011G19KT P6SM SCT070
     FM252200 26015G25KT P6SM VCSH BKN070
     FM260100 28012KT P6SM BKN080=

USA.gov is the U.S. government's official web portal to all federal, state and local government web resources and services.